sensor_id;sensor_type;location;lat;lon;timestamp;P1;durP1;ratioP1;P2;durP2;ratioP2
72801;SDS011;61891;55.818;37.084;2022-08-21T00:00:16;20.52;;;14.20;;
72801;SDS011;61891;55.818;37.084;2022-08-21T00:02:46;22.90;;;16.33;;
72801;SDS011;61891;55.818;37.084;2022-08-21T00:05:14;22.42;;;15.50;;
72801;SDS011;61891;55.818;37.084;2022-08-21T00:07:40;23.92;;;16.65;;
72801;SDS011;61891;55.818;37.084;2022-08-21T00:10:06;28.05;;;18.13;;
72801;SDS011;61891;55.818;37.084;2022-08-21T00:12:32;23.38;;;17.42;;
72801;SDS011;61891;55.818;37.084;2022-08-21T00:17:24;27.17;;;18.80;;
72801;SDS011;61891;55.818;37.084;2022-08-21T00:19:50;27.70;;;18.20;;
72801;SDS011;61891;55.818;37.084;2022-08-21T00:22:15;28.75;;;18.45;;
72801;SDS011;61891;55.818;37.084;2022-08-21T00:24:42;25.35;;;18.95;;
72801;SDS011;61891;55.818;37.084;2022-08-21T00:27:08;31.55;;;20.00;;
72801;SDS011;61891;55.818;37.084;2022-08-21T00:31:59;29.73;;;18.85;;
72801;SDS011;61891;55.818;37.084;2022-08-21T00:36:51;31.05;;;19.25;;
72801;SDS011;61891;55.818;37.084;2022-08-21T00:39:17;27.90;;;19.88;;
72801;SDS011;61891;55.818;37.084;2022-08-21T00:41:43;30.38;;;21.38;;
72801;SDS011;61891;55.818;37.084;2022-08-21T00:44:10;30.83;;;20.67;;
72801;SDS011;61891;55.818;37.084;2022-08-21T00:46:37;31.52;;;22.20;;
72801;SDS011;61891;55.818;37.084;2022-08-21T00:49:05;35.95;;;22.20;;
72801;SDS011;61891;55.818;37.084;2022-08-21T00:51:36;31.20;;;21.33;;
72801;SDS011;61891;55.818;37.084;2022-08-21T00:54:07;32.67;;;21.85;;
72801;SDS011;61891;55.818;37.084;2022-08-21T00:56:35;33.88;;;21.38;;
72801;SDS011;61891;55.818;37.084;2022-08-21T00:59:02;33.85;;;21.70;;
72801;SDS011;61891;55.818;37.084;2022-08-21T01:01:28;33.33;;;22.30;;
72801;SDS011;61891;55.818;37.084;2022-08-21T01:03:54;34.85;;;24.60;;
72801;SDS011;61891;55.818;37.084;2022-08-21T01:06:19;32.63;;;23.15;;
72801;SDS011;61891;55.818;37.084;2022-08-21T01:08:45;35.53;;;23.85;;
72801;SDS011;61891;55.818;37.084;2022-08-21T01:11:12;35.95;;;24.80;;
72801;SDS011;61891;55.818;37.084;2022-08-21T01:13:38;40.25;;;26.05;;
72801;SDS011;61891;55.818;37.084;2022-08-21T01:16:11;39.60;;;25.80;;
72801;SDS011;61891;55.818;37.084;2022-08-21T01:18:38;39.63;;;25.42;;
72801;SDS011;61891;55.818;37.084;2022-08-21T01:21:06;39.80;;;26.42;;
72801;SDS011;61891;55.818;37.084;2022-08-21T01:23:36;38.67;;;27.58;;
72801;SDS011;61891;55.818;37.084;2022-08-21T01:26:03;39.75;;;26.65;;
72801;SDS011;61891;55.818;37.084;2022-08-21T01:28:31;43.40;;;28.90;;
72801;SDS011;61891;55.818;37.084;2022-08-21T01:31:00;37.75;;;28.35;;
72801;SDS011;61891;55.818;37.084;2022-08-21T01:33:28;41.85;;;29.35;;
72801;SDS011;61891;55.818;37.084;2022-08-21T01:35:53;44.33;;;29.58;;
72801;SDS011;61891;55.818;37.084;2022-08-21T01:38:19;41.47;;;28.38;;
72801;SDS011;61891;55.818;37.084;2022-08-21T01:40:45;47.95;;;31.92;;
72801;SDS011;61891;55.818;37.084;2022-08-21T01:43:11;48.05;;;31.55;;
72801;SDS011;61891;55.818;37.084;2022-08-21T01:45:37;48.38;;;30.90;;
72801;SDS011;61891;55.818;37.084;2022-08-21T01:48:02;45.03;;;31.75;;
72801;SDS011;61891;55.818;37.084;2022-08-21T01:50:28;50.42;;;32.53;;
72801;SDS011;61891;55.818;37.084;2022-08-21T01:52:54;44.72;;;31.80;;
72801;SDS011;61891;55.818;37.084;2022-08-21T01:55:20;47.28;;;32.78;;
72801;SDS011;61891;55.818;37.084;2022-08-21T01:57:47;47.65;;;32.28;;
72801;SDS011;61891;55.818;37.084;2022-08-21T02:00:14;49.17;;;32.53;;
72801;SDS011;61891;55.818;37.084;2022-08-21T02:02:43;44.17;;;32.28;;
72801;SDS011;61891;55.818;37.084;2022-08-21T02:05:10;49.38;;;32.45;;
72801;SDS011;61891;55.818;37.084;2022-08-21T02:07:37;49.50;;;33.45;;
72801;SDS011;61891;55.818;37.084;2022-08-21T02:10:09;48.75;;;34.15;;
72801;SDS011;61891;55.818;37.084;2022-08-21T02:12:37;48.03;;;32.88;;
72801;SDS011;61891;55.818;37.084;2022-08-21T02:15:23;44.90;;;31.23;;
72801;SDS011;61891;55.818;37.084;2022-08-21T02:17:50;52.53;;;32.47;;
72801;SDS011;61891;55.818;37.084;2022-08-21T02:20:19;51.15;;;34.03;;
72801;SDS011;61891;55.818;37.084;2022-08-21T02:22:56;45.70;;;31.92;;
72801;SDS011;61891;55.818;37.084;2022-08-21T02:25:22;43.97;;;30.70;;
72801;SDS011;61891;55.818;37.084;2022-08-21T02:27:49;50.38;;;32.30;;
72801;SDS011;61891;55.818;37.084;2022-08-21T02:32:47;50.55;;;32.83;;
72801;SDS011;61891;55.818;37.084;2022-08-21T02:35:13;47.15;;;33.50;;
72801;SDS011;61891;55.818;37.084;2022-08-21T02:37:49;48.80;;;30.88;;
72801;SDS011;61891;55.818;37.084;2022-08-21T02:40:24;47.97;;;32.20;;
72801;SDS011;61891;55.818;37.084;2022-08-21T02:42:52;44.70;;;30.23;;
72801;SDS011;61891;55.818;37.084;2022-08-21T02:47:51;51.78;;;31.88;;
72801;SDS011;61891;55.818;37.084;2022-08-21T02:50:29;44.08;;;31.45;;
72801;SDS011;61891;55.818;37.084;2022-08-21T02:52:57;48.75;;;31.65;;
72801;SDS011;61891;55.818;37.084;2022-08-21T02:55:26;48.13;;;30.55;;
72801;SDS011;61891;55.818;37.084;2022-08-21T02:57:55;47.53;;;30.08;;
72801;SDS011;61891;55.818;37.084;2022-08-21T03:00:22;47.65;;;31.27;;
72801;SDS011;61891;55.818;37.084;2022-08-21T03:02:50;44.33;;;30.33;;
72801;SDS011;61891;55.818;37.084;2022-08-21T03:05:17;48.38;;;31.70;;
72801;SDS011;61891;55.818;37.084;2022-08-21T03:07:44;44.58;;;30.40;;
72801;SDS011;61891;55.818;37.084;2022-08-21T03:10:11;44.88;;;29.77;;
72801;SDS011;61891;55.818;37.084;2022-08-21T03:12:37;45.45;;;29.42;;
72801;SDS011;61891;55.818;37.084;2022-08-21T03:15:04;44.72;;;30.00;;
72801;SDS011;61891;55.818;37.084;2022-08-21T03:17:35;42.38;;;28.98;;
72801;SDS011;61891;55.818;37.084;2022-08-21T03:20:02;41.85;;;29.27;;
72801;SDS011;61891;55.818;37.084;2022-08-21T03:22:29;40.78;;;28.65;;
72801;SDS011;61891;55.818;37.084;2022-08-21T03:24:54;40.60;;;27.52;;
72801;SDS011;61891;55.818;37.084;2022-08-21T03:27:22;42.70;;;28.13;;
72801;SDS011;61891;55.818;37.084;2022-08-21T03:29:52;38.78;;;27.75;;
72801;SDS011;61891;55.818;37.084;2022-08-21T03:32:18;43.00;;;28.20;;
72801;SDS011;61891;55.818;37.084;2022-08-21T03:34:44;44.58;;;28.05;;
72801;SDS011;61891;55.818;37.084;2022-08-21T03:39:37;40.15;;;26.40;;
72801;SDS011;61891;55.818;37.084;2022-08-21T03:42:03;40.85;;;27.73;;
72801;SDS011;61891;55.818;37.084;2022-08-21T03:44:30;40.30;;;28.33;;
72801;SDS011;61891;55.818;37.084;2022-08-21T03:46:56;37.63;;;26.10;;
72801;SDS011;61891;55.818;37.084;2022-08-21T03:49:23;40.30;;;26.30;;
72801;SDS011;61891;55.818;37.084;2022-08-21T03:51:50;36.33;;;26.02;;
72801;SDS011;61891;55.818;37.084;2022-08-21T03:54:16;38.90;;;26.35;;
72801;SDS011;61891;55.818;37.084;2022-08-21T03:56:42;39.83;;;25.88;;
72801;SDS011;61891;55.818;37.084;2022-08-21T03:59:08;39.70;;;26.27;;
72801;SDS011;61891;55.818;37.084;2022-08-21T04:03:59;34.90;;;25.23;;
72801;SDS011;61891;55.818;37.084;2022-08-21T04:06:25;34.92;;;24.80;;
72801;SDS011;61891;55.818;37.084;2022-08-21T04:08:52;37.03;;;25.67;;
72801;SDS011;61891;55.818;37.084;2022-08-21T04:11:18;34.30;;;23.50;;
72801;SDS011;61891;55.818;37.084;2022-08-21T04:16:11;36.45;;;24.83;;
72801;SDS011;61891;55.818;37.084;2022-08-21T04:18:38;33.47;;;23.30;;
72801;SDS011;61891;55.818;37.084;2022-08-21T04:23:30;34.00;;;22.10;;
72801;SDS011;61891;55.818;37.084;2022-08-21T04:25:56;35.70;;;23.40;;
72801;SDS011;61891;55.818;37.084;2022-08-21T04:28:23;35.10;;;23.10;;
72801;SDS011;61891;55.818;37.084;2022-08-21T04:30:51;34.15;;;23.48;;
72801;SDS011;61891;55.818;37.084;2022-08-21T04:33:17;33.35;;;23.33;;
72801;SDS011;61891;55.818;37.084;2022-08-21T04:35:43;34.47;;;22.13;;
72801;SDS011;61891;55.818;37.084;2022-08-21T04:38:09;33.42;;;23.25;;
72801;SDS011;61891;55.818;37.084;2022-08-21T04:40:35;32.50;;;21.90;;
72801;SDS011;61891;55.818;37.084;2022-08-21T04:45:30;32.13;;;21.98;;
72801;SDS011;61891;55.818;37.084;2022-08-21T04:48:00;28.92;;;19.27;;
72801;SDS011;61891;55.818;37.084;2022-08-21T04:50:39;28.17;;;20.27;;
72801;SDS011;61891;55.818;37.084;2022-08-21T04:53:10;31.67;;;20.17;;
72801;SDS011;61891;55.818;37.084;2022-08-21T04:55:40;32.03;;;21.50;;
72801;SDS011;61891;55.818;37.084;2022-08-21T04:58:08;29.95;;;20.77;;
72801;SDS011;61891;55.818;37.084;2022-08-21T05:00:36;32.83;;;21.33;;
72801;SDS011;61891;55.818;37.084;2022-08-21T05:03:02;30.77;;;20.77;;
72801;SDS011;61891;55.818;37.084;2022-08-21T05:05:31;27.42;;;18.60;;
72801;SDS011;61891;55.818;37.084;2022-08-21T05:07:59;29.90;;;20.60;;
72801;SDS011;61891;55.818;37.084;2022-08-21T05:10:26;28.70;;;19.75;;
72801;SDS011;61891;55.818;37.084;2022-08-21T05:12:52;29.60;;;20.63;;
72801;SDS011;61891;55.818;37.084;2022-08-21T05:15:19;26.75;;;18.92;;
72801;SDS011;61891;55.818;37.084;2022-08-21T05:20:11;26.75;;;17.55;;
72801;SDS011;61891;55.818;37.084;2022-08-21T05:22:39;25.40;;;15.60;;
72801;SDS011;61891;55.818;37.084;2022-08-21T05:25:06;24.88;;;19.67;;
72801;SDS011;61891;55.818;37.084;2022-08-21T05:27:32;28.02;;;18.73;;
72801;SDS011;61891;55.818;37.084;2022-08-21T05:32:24;25.58;;;17.85;;
72801;SDS011;61891;55.818;37.084;2022-08-21T05:34:50;30.33;;;19.83;;
72801;SDS011;61891;55.818;37.084;2022-08-21T05:39:42;26.23;;;18.40;;
72801;SDS011;61891;55.818;37.084;2022-08-21T05:42:07;24.27;;;17.67;;
72801;SDS011;61891;55.818;37.084;2022-08-21T05:47:03;25.40;;;16.98;;
72801;SDS011;61891;55.818;37.084;2022-08-21T05:49:32;22.23;;;16.73;;
72801;SDS011;61891;55.818;37.084;2022-08-21T05:54:24;28.55;;;16.75;;
72801;SDS011;61891;55.818;37.084;2022-08-21T05:56:50;25.95;;;17.52;;
72801;SDS011;61891;55.818;37.084;2022-08-21T05:59:17;26.42;;;18.30;;
72801;SDS011;61891;55.818;37.084;2022-08-21T06:01:43;25.02;;;17.35;;
72801;SDS011;61891;55.818;37.084;2022-08-21T06:04:10;24.13;;;17.42;;
72801;SDS011;61891;55.818;37.084;2022-08-21T06:06:37;22.77;;;17.00;;
72801;SDS011;61891;55.818;37.084;2022-08-21T06:11:29;21.83;;;15.23;;
72801;SDS011;61891;55.818;37.084;2022-08-21T06:13:55;20.98;;;14.35;;
72801;SDS011;61891;55.818;37.084;2022-08-21T06:16:21;23.33;;;16.35;;
72801;SDS011;61891;55.818;37.084;2022-08-21T06:18:48;21.63;;;15.90;;
72801;SDS011;61891;55.818;37.084;2022-08-21T06:21:14;22.85;;;16.15;;
72801;SDS011;61891;55.818;37.084;2022-08-21T06:23:40;20.63;;;15.60;;
72801;SDS011;61891;55.818;37.084;2022-08-21T06:26:07;27.10;;;16.48;;
72801;SDS011;61891;55.818;37.084;2022-08-21T06:28:34;22.95;;;15.13;;
72801;SDS011;61891;55.818;37.084;2022-08-21T06:31:09;23.88;;;15.77;;
72801;SDS011;61891;55.818;37.084;2022-08-21T06:33:45;23.92;;;17.73;;
72801;SDS011;61891;55.818;37.084;2022-08-21T06:36:11;24.73;;;18.15;;
72801;SDS011;61891;55.818;37.084;2022-08-21T06:38:37;25.77;;;16.42;;
72801;SDS011;61891;55.818;37.084;2022-08-21T06:41:04;25.27;;;17.15;;
72801;SDS011;61891;55.818;37.084;2022-08-21T06:43:30;24.25;;;16.75;;
72801;SDS011;61891;55.818;37.084;2022-08-21T06:45:56;26.08;;;18.73;;
72801;SDS011;61891;55.818;37.084;2022-08-21T06:48:22;24.77;;;17.90;;
72801;SDS011;61891;55.818;37.084;2022-08-21T06:50:48;24.77;;;16.27;;
72801;SDS011;61891;55.818;37.084;2022-08-21T06:53:15;25.58;;;17.00;;
72801;SDS011;61891;55.818;37.084;2022-08-21T06:55:43;26.85;;;17.08;;
72801;SDS011;61891;55.818;37.084;2022-08-21T06:58:09;26.25;;;18.23;;
72801;SDS011;61891;55.818;37.084;2022-08-21T07:00:38;28.85;;;17.63;;
72801;SDS011;61891;55.818;37.084;2022-08-21T07:03:06;22.10;;;16.10;;
72801;SDS011;61891;55.818;37.084;2022-08-21T07:05:31;22.60;;;15.93;;
72801;SDS011;61891;55.818;37.084;2022-08-21T07:07:58;23.70;;;15.68;;
72801;SDS011;61891;55.818;37.084;2022-08-21T07:10:25;22.83;;;16.10;;
72801;SDS011;61891;55.818;37.084;2022-08-21T07:12:51;23.95;;;16.52;;
72801;SDS011;61891;55.818;37.084;2022-08-21T07:15:19;22.20;;;14.93;;
72801;SDS011;61891;55.818;37.084;2022-08-21T07:17:45;23.20;;;15.50;;
72801;SDS011;61891;55.818;37.084;2022-08-21T07:20:11;24.17;;;15.85;;
72801;SDS011;61891;55.818;37.084;2022-08-21T07:22:37;21.92;;;15.88;;
72801;SDS011;61891;55.818;37.084;2022-08-21T07:25:05;19.48;;;14.77;;
72801;SDS011;61891;55.818;37.084;2022-08-21T07:27:31;21.02;;;14.95;;
72801;SDS011;61891;55.818;37.084;2022-08-21T07:29:57;17.65;;;12.57;;
72801;SDS011;61891;55.818;37.084;2022-08-21T07:32:23;19.63;;;12.80;;
72801;SDS011;61891;55.818;37.084;2022-08-21T07:34:49;22.20;;;15.50;;
72801;SDS011;61891;55.818;37.084;2022-08-21T07:37:15;20.98;;;15.10;;
72801;SDS011;61891;55.818;37.084;2022-08-21T07:39:41;20.42;;;13.57;;
72801;SDS011;61891;55.818;37.084;2022-08-21T07:42:07;17.23;;;13.73;;
72801;SDS011;61891;55.818;37.084;2022-08-21T07:44:33;18.83;;;12.82;;
72801;SDS011;61891;55.818;37.084;2022-08-21T07:47:00;20.67;;;12.82;;
72801;SDS011;61891;55.818;37.084;2022-08-21T07:49:27;18.83;;;13.43;;
72801;SDS011;61891;55.818;37.084;2022-08-21T07:51:53;16.95;;;12.85;;
72801;SDS011;61891;55.818;37.084;2022-08-21T07:54:18;18.23;;;12.60;;
72801;SDS011;61891;55.818;37.084;2022-08-21T07:56:44;21.75;;;14.98;;
72801;SDS011;61891;55.818;37.084;2022-08-21T07:59:10;20.17;;;13.63;;
72801;SDS011;61891;55.818;37.084;2022-08-21T08:01:36;21.17;;;15.23;;
72801;SDS011;61891;55.818;37.084;2022-08-21T08:04:02;21.60;;;16.33;;
72801;SDS011;61891;55.818;37.084;2022-08-21T08:06:29;23.73;;;17.30;;
72801;SDS011;61891;55.818;37.084;2022-08-21T08:08:55;22.40;;;15.70;;
72801;SDS011;61891;55.818;37.084;2022-08-21T08:11:21;23.75;;;16.10;;
72801;SDS011;61891;55.818;37.084;2022-08-21T08:13:48;20.80;;;15.20;;
72801;SDS011;61891;55.818;37.084;2022-08-21T08:16:16;18.35;;;13.00;;
72801;SDS011;61891;55.818;37.084;2022-08-21T08:18:42;21.33;;;15.32;;
72801;SDS011;61891;55.818;37.084;2022-08-21T08:21:10;19.30;;;13.80;;
72801;SDS011;61891;55.818;37.084;2022-08-21T08:23:37;18.00;;;14.60;;
72801;SDS011;61891;55.818;37.084;2022-08-21T08:26:03;20.70;;;14.07;;
72801;SDS011;61891;55.818;37.084;2022-08-21T08:28:29;22.45;;;14.30;;
72801;SDS011;61891;55.818;37.084;2022-08-21T08:30:57;21.25;;;14.18;;
72801;SDS011;61891;55.818;37.084;2022-08-21T08:33:23;19.02;;;14.27;;
72801;SDS011;61891;55.818;37.084;2022-08-21T08:35:49;20.67;;;14.88;;
72801;SDS011;61891;55.818;37.084;2022-08-21T08:38:17;23.60;;;16.45;;
72801;SDS011;61891;55.818;37.084;2022-08-21T08:43:25;22.15;;;15.95;;
72801;SDS011;61891;55.818;37.084;2022-08-21T08:45:54;21.05;;;14.93;;
72801;SDS011;61891;55.818;37.084;2022-08-21T08:48:30;19.85;;;14.70;;
72801;SDS011;61891;55.818;37.084;2022-08-21T08:51:02;20.17;;;14.60;;
72801;SDS011;61891;55.818;37.084;2022-08-21T08:53:33;24.65;;;16.02;;
72801;SDS011;61891;55.818;37.084;2022-08-21T08:56:08;21.83;;;15.55;;
72801;SDS011;61891;55.818;37.084;2022-08-21T08:58:37;22.77;;;15.13;;
72801;SDS011;61891;55.818;37.084;2022-08-21T09:01:12;22.58;;;15.43;;
72801;SDS011;61891;55.818;37.084;2022-08-21T09:03:42;19.42;;;15.73;;
72801;SDS011;61891;55.818;37.084;2022-08-21T09:06:12;19.13;;;15.18;;
72801;SDS011;61891;55.818;37.084;2022-08-21T09:14:42;21.90;;;16.95;;
72801;SDS011;61891;55.818;37.084;2022-08-21T09:26:15;23.42;;;16.75;;
72801;SDS011;61891;55.818;37.084;2022-08-21T09:28:43;22.25;;;15.15;;
72801;SDS011;61891;55.818;37.084;2022-08-21T09:31:21;22.55;;;15.77;;
72801;SDS011;61891;55.818;37.084;2022-08-21T09:33:49;22.60;;;16.08;;
72801;SDS011;61891;55.818;37.084;2022-08-21T09:36:31;23.80;;;15.05;;
72801;SDS011;61891;55.818;37.084;2022-08-21T09:39:02;19.65;;;15.07;;
72801;SDS011;61891;55.818;37.084;2022-08-21T09:41:31;20.77;;;14.75;;
72801;SDS011;61891;55.818;37.084;2022-08-21T09:44:01;23.48;;;16.15;;
72801;SDS011;61891;55.818;37.084;2022-08-21T09:46:28;22.20;;;15.13;;
72801;SDS011;61891;55.818;37.084;2022-08-21T09:48:55;24.33;;;16.30;;
72801;SDS011;61891;55.818;37.084;2022-08-21T09:51:26;26.58;;;17.88;;
72801;SDS011;61891;55.818;37.084;2022-08-21T09:56:32;27.30;;;19.02;;
72801;SDS011;61891;55.818;37.084;2022-08-21T10:01:51;30.00;;;19.20;;
72801;SDS011;61891;55.818;37.084;2022-08-21T10:04:27;24.25;;;17.77;;
72801;SDS011;61891;55.818;37.084;2022-08-21T10:07:05;25.20;;;18.35;;
72801;SDS011;61891;55.818;37.084;2022-08-21T10:09:35;26.27;;;17.45;;
72801;SDS011;61891;55.818;37.084;2022-08-21T10:12:10;23.38;;;15.75;;
72801;SDS011;61891;55.818;37.084;2022-08-21T10:17:26;27.35;;;16.67;;
72801;SDS011;61891;55.818;37.084;2022-08-21T10:20:04;25.10;;;17.77;;
72801;SDS011;61891;55.818;37.084;2022-08-21T10:28:46;21.73;;;14.85;;
72801;SDS011;61891;55.818;37.084;2022-08-21T10:34:42;20.08;;;13.15;;
72801;SDS011;61891;55.818;37.084;2022-08-21T10:39:37;21.35;;;14.32;;
72801;SDS011;61891;55.818;37.084;2022-08-21T10:42:35;18.73;;;11.93;;
72801;SDS011;61891;55.818;37.084;2022-08-21T10:45:17;20.17;;;13.40;;
72801;SDS011;61891;55.818;37.084;2022-08-21T10:47:50;20.95;;;13.25;;
72801;SDS011;61891;55.818;37.084;2022-08-21T10:50:39;19.88;;;13.18;;
72801;SDS011;61891;55.818;37.084;2022-08-21T10:55:56;22.27;;;13.32;;
72801;SDS011;61891;55.818;37.084;2022-08-21T10:58:31;20.00;;;13.82;;
72801;SDS011;61891;55.818;37.084;2022-08-21T11:01:13;21.27;;;13.50;;
72801;SDS011;61891;55.818;37.084;2022-08-21T11:04:26;17.23;;;11.93;;
72801;SDS011;61891;55.818;37.084;2022-08-21T11:09:42;20.67;;;11.32;;
72801;SDS011;61891;55.818;37.084;2022-08-21T11:12:17;17.48;;;10.35;;
72801;SDS011;61891;55.818;37.084;2022-08-21T11:14:55;22.65;;;10.98;;
72801;SDS011;61891;55.818;37.084;2022-08-21T11:17:24;19.40;;;10.75;;
72801;SDS011;61891;55.818;37.084;2022-08-21T11:20:03;17.27;;;8.93;;
72801;SDS011;61891;55.818;37.084;2022-08-21T11:28:00;10.82;;;6.30;;
72801;SDS011;61891;55.818;37.084;2022-08-21T11:36:02;14.57;;;5.05;;
72801;SDS011;61891;55.818;37.084;2022-08-21T11:41:23;11.60;;;4.93;;
72801;SDS011;61891;55.818;37.084;2022-08-21T11:43:56;12.57;;;4.97;;
72801;SDS011;61891;55.818;37.084;2022-08-21T11:57:17;9.10;;;3.75;;
72801;SDS011;61891;55.818;37.084;2022-08-21T11:59:59;6.95;;;3.13;;
72801;SDS011;61891;55.818;37.084;2022-08-21T12:02:40;5.82;;;3.53;;
72801;SDS011;61891;55.818;37.084;2022-08-21T12:05:20;7.55;;;4.00;;
72801;SDS011;61891;55.818;37.084;2022-08-21T12:08:01;11.23;;;3.92;;
72801;SDS011;61891;55.818;37.084;2022-08-21T12:10:34;10.07;;;4.15;;
72801;SDS011;61891;55.818;37.084;2022-08-21T12:13:06;11.77;;;4.70;;
72801;SDS011;61891;55.818;37.084;2022-08-21T12:15:39;10.82;;;5.38;;
72801;SDS011;61891;55.818;37.084;2022-08-21T12:18:07;9.98;;;4.53;;
72801;SDS011;61891;55.818;37.084;2022-08-21T12:20:58;8.88;;;4.28;;
72801;SDS011;61891;55.818;37.084;2022-08-21T12:26:58;7.60;;;3.75;;
72801;SDS011;61891;55.818;37.084;2022-08-21T12:29:30;8.25;;;4.22;;
72801;SDS011;61891;55.818;37.084;2022-08-21T12:32:19;11.15;;;4.85;;
72801;SDS011;61891;55.818;37.084;2022-08-21T12:37:42;13.23;;;5.07;;
72801;SDS011;61891;55.818;37.084;2022-08-21T12:40:19;11.75;;;5.85;;
72801;SDS011;61891;55.818;37.084;2022-08-21T12:42:53;11.25;;;6.35;;
72801;SDS011;61891;55.818;37.084;2022-08-21T12:45:23;11.77;;;6.72;;
72801;SDS011;61891;55.818;37.084;2022-08-21T12:48:09;11.68;;;7.45;;
72801;SDS011;61891;55.818;37.084;2022-08-21T12:55:47;14.30;;;8.43;;
72801;SDS011;61891;55.818;37.084;2022-08-21T12:58:20;12.55;;;8.02;;
72801;SDS011;61891;55.818;37.084;2022-08-21T13:00:52;14.10;;;7.93;;
72801;SDS011;61891;55.818;37.084;2022-08-21T13:03:21;14.40;;;4.60;;
72801;SDS011;61891;55.818;37.084;2022-08-21T13:05:48;13.45;;;5.35;;
72801;SDS011;61891;55.818;37.084;2022-08-21T13:08:18;10.48;;;4.32;;
72801;SDS011;61891;55.818;37.084;2022-08-21T13:10:46;9.63;;;4.63;;
72801;SDS011;61891;55.818;37.084;2022-08-21T13:13:17;11.48;;;3.30;;
72801;SDS011;61891;55.818;37.084;2022-08-21T13:15:46;11.93;;;3.58;;
72801;SDS011;61891;55.818;37.084;2022-08-21T13:18:22;12.45;;;3.10;;
72801;SDS011;61891;55.818;37.084;2022-08-21T13:20:51;8.93;;;3.00;;
72801;SDS011;61891;55.818;37.084;2022-08-21T13:23:28;7.97;;;2.47;;
72801;SDS011;61891;55.818;37.084;2022-08-21T13:25:55;11.38;;;3.45;;
72801;SDS011;61891;55.818;37.084;2022-08-21T13:28:22;9.40;;;2.10;;
72801;SDS011;61891;55.818;37.084;2022-08-21T13:30:49;8.05;;;2.30;;
72801;SDS011;61891;55.818;37.084;2022-08-21T13:33:18;10.68;;;2.22;;
72801;SDS011;61891;55.818;37.084;2022-08-21T13:38:25;7.60;;;2.75;;
72801;SDS011;61891;55.818;37.084;2022-08-21T13:41:02;7.82;;;2.00;;
72801;SDS011;61891;55.818;37.084;2022-08-21T13:43:44;9.05;;;2.40;;
72801;SDS011;61891;55.818;37.084;2022-08-21T13:46:12;10.70;;;2.30;;
72801;SDS011;61891;55.818;37.084;2022-08-21T13:48:40;10.07;;;3.00;;
72801;SDS011;61891;55.818;37.084;2022-08-21T13:51:07;11.80;;;2.95;;
72801;SDS011;61891;55.818;37.084;2022-08-21T13:53:36;10.30;;;3.35;;
72801;SDS011;61891;55.818;37.084;2022-08-21T13:56:10;10.45;;;3.17;;
72801;SDS011;61891;55.818;37.084;2022-08-21T13:59:14;9.98;;;3.75;;
72801;SDS011;61891;55.818;37.084;2022-08-21T14:04:31;8.95;;;3.53;;
72801;SDS011;61891;55.818;37.084;2022-08-21T14:07:00;9.40;;;3.67;;
72801;SDS011;61891;55.818;37.084;2022-08-21T14:09:39;9.25;;;3.78;;
72801;SDS011;61891;55.818;37.084;2022-08-21T14:12:25;10.32;;;3.90;;
72801;SDS011;61891;55.818;37.084;2022-08-21T14:14:54;10.38;;;4.03;;
72801;SDS011;61891;55.818;37.084;2022-08-21T14:17:29;6.90;;;3.75;;
72801;SDS011;61891;55.818;37.084;2022-08-21T14:19:57;9.88;;;4.22;;
72801;SDS011;61891;55.818;37.084;2022-08-21T14:25:02;10.45;;;4.00;;
72801;SDS011;61891;55.818;37.084;2022-08-21T14:27:37;8.27;;;3.95;;
72801;SDS011;61891;55.818;37.084;2022-08-21T14:30:28;11.40;;;3.75;;
72801;SDS011;61891;55.818;37.084;2022-08-21T14:32:57;8.70;;;3.55;;
72801;SDS011;61891;55.818;37.084;2022-08-21T14:35:23;7.13;;;3.65;;
72801;SDS011;61891;55.818;37.084;2022-08-21T14:37:49;8.25;;;3.67;;
72801;SDS011;61891;55.818;37.084;2022-08-21T14:40:16;7.75;;;3.30;;
72801;SDS011;61891;55.818;37.084;2022-08-21T14:42:43;8.32;;;3.45;;
72801;SDS011;61891;55.818;37.084;2022-08-21T14:45:14;10.63;;;3.65;;
72801;SDS011;61891;55.818;37.084;2022-08-21T14:47:40;5.03;;;2.75;;
72801;SDS011;61891;55.818;37.084;2022-08-21T14:50:08;9.00;;;3.35;;
72801;SDS011;61891;55.818;37.084;2022-08-21T14:52:35;8.73;;;3.47;;
72801;SDS011;61891;55.818;37.084;2022-08-21T14:55:02;7.05;;;2.85;;
72801;SDS011;61891;55.818;37.084;2022-08-21T14:57:29;7.75;;;3.03;;
72801;SDS011;61891;55.818;37.084;2022-08-21T14:59:56;8.85;;;2.78;;
72801;SDS011;61891;55.818;37.084;2022-08-21T15:02:22;5.70;;;3.13;;
72801;SDS011;61891;55.818;37.084;2022-08-21T15:04:48;13.65;;;3.00;;
72801;SDS011;61891;55.818;37.084;2022-08-21T15:07:14;9.38;;;2.97;;
72801;SDS011;61891;55.818;37.084;2022-08-21T15:09:40;7.60;;;2.92;;
72801;SDS011;61891;55.818;37.084;2022-08-21T15:12:05;5.50;;;2.85;;
72801;SDS011;61891;55.818;37.084;2022-08-21T15:14:33;7.85;;;2.58;;
72801;SDS011;61891;55.818;37.084;2022-08-21T15:17:01;10.35;;;3.13;;
72801;SDS011;61891;55.818;37.084;2022-08-21T15:19:29;8.80;;;3.17;;
72801;SDS011;61891;55.818;37.084;2022-08-21T15:21:55;7.15;;;3.70;;
72801;SDS011;61891;55.818;37.084;2022-08-21T15:24:21;6.65;;;3.15;;
72801;SDS011;61891;55.818;37.084;2022-08-21T15:26:47;10.95;;;3.95;;
72801;SDS011;61891;55.818;37.084;2022-08-21T15:29:13;9.75;;;4.05;;
72801;SDS011;61891;55.818;37.084;2022-08-21T15:34:43;9.70;;;4.82;;
72801;SDS011;61891;55.818;37.084;2022-08-21T15:37:09;10.85;;;4.53;;
72801;SDS011;61891;55.818;37.084;2022-08-21T15:39:35;10.23;;;4.57;;
72801;SDS011;61891;55.818;37.084;2022-08-21T15:42:01;8.00;;;4.75;;
72801;SDS011;61891;55.818;37.084;2022-08-21T15:44:27;10.55;;;4.70;;
72801;SDS011;61891;55.818;37.084;2022-08-21T15:46:54;9.98;;;4.72;;
72801;SDS011;61891;55.818;37.084;2022-08-21T15:49:21;12.50;;;4.38;;
72801;SDS011;61891;55.818;37.084;2022-08-21T15:51:47;9.25;;;4.20;;
72801;SDS011;61891;55.818;37.084;2022-08-21T15:54:13;9.65;;;4.68;;
72801;SDS011;61891;55.818;37.084;2022-08-21T15:56:39;7.47;;;5.05;;
72801;SDS011;61891;55.818;37.084;2022-08-21T15:59:12;10.65;;;5.60;;
72801;SDS011;61891;55.818;37.084;2022-08-21T16:01:40;8.75;;;4.28;;
72801;SDS011;61891;55.818;37.084;2022-08-21T16:04:06;10.50;;;4.10;;
72801;SDS011;61891;55.818;37.084;2022-08-21T16:06:32;9.27;;;4.20;;
72801;SDS011;61891;55.818;37.084;2022-08-21T16:08:59;11.10;;;3.90;;
72801;SDS011;61891;55.818;37.084;2022-08-21T16:11:25;8.57;;;3.80;;
72801;SDS011;61891;55.818;37.084;2022-08-21T16:13:53;8.40;;;3.88;;
72801;SDS011;61891;55.818;37.084;2022-08-21T16:16:20;7.47;;;3.15;;
72801;SDS011;61891;55.818;37.084;2022-08-21T16:18:48;6.78;;;3.28;;
72801;SDS011;61891;55.818;37.084;2022-08-21T16:21:15;6.25;;;3.28;;
72801;SDS011;61891;55.818;37.084;2022-08-21T16:23:41;7.90;;;2.97;;
72801;SDS011;61891;55.818;37.084;2022-08-21T16:26:08;6.47;;;2.75;;
72801;SDS011;61891;55.818;37.084;2022-08-21T16:28:36;7.38;;;3.00;;
72801;SDS011;61891;55.818;37.084;2022-08-21T16:31:03;7.15;;;2.75;;
72801;SDS011;61891;55.818;37.084;2022-08-21T16:33:51;5.00;;;2.78;;
72801;SDS011;61891;55.818;37.084;2022-08-21T16:36:17;5.55;;;2.33;;